Emma Bardán — ECJU — position and weather

sailwx.info

Track history (hours):
 
Tides and Currents Weather Stations Pressure Air Temp Water Temp Dewpoint Dewpoint Depression Visibility Wind Speed Wind Dir Waves Ship Positions

Oceanographic research ship Emma Bardán (Spain)

Ship's website: http://www.mapa.es/es/pesca/pags/emma_web/index.htm

Last reported at 2017-Jun-22 04:25 UTC. Time now 2017-Jun-27 00:20 UTC.
Position N 43°42' W 006°06'.

Length 29 m; draft 3.6 m.

Type: . MMSI: 224756000.

Date/timePositionNaut miles runAvg speedWind from/ knotsBaromVisibWave heightAir tempDewpointWater temp
2017-Jun-22 04:25N 43°42' W 006°06'410.6
2017-Jun-22 04:00N 43°42' W 005°60'510.4
2017-Jun-22 03:29N 43°41' W 005°53'510.3
2017-Jun-22 03:00N 43°41' W 005°46'510.1
2017-Jun-22 02:30N 43°41' W 005°39'510.7
2017-Jun-22 02:00N 43°40' W 005°31'510.5
2017-Jun-22 01:30N 43°40' W 005°24'510.5
2017-Jun-22 00:59N 43°39' W 005°17'147 6.6
2017-Jun-21 02:51N 43°19' W 001°56'0 0.0
2017-Jun-21 02:29N 43°19' W 001°56'0 0.0
2017-Jun-20 20:37N 43°19' W 001°56'29 0.8
2017-Jun-19 08:36N 43°46' W 001°41'0 2.2
2017-Jun-19 08:30N 43°47' W 001°41'1 2.8
2017-Jun-19 08:00N 43°48' W 001°40'1 2.9
2017-Jun-19 07:30N 43°49' W 001°40'1 2.0
2017-Jun-19 07:00N 43°50' W 001°41'1 2.4
2017-Jun-19 06:30N 43°48' W 001°41'1 2.0
2017-Jun-19 06:00N 43°47' W 001°41'1 1.8
2017-Jun-19 05:30N 43°48' W 001°42'0 0.3
2017-Jun-19 05:00N 43°48' W 001°42'0 0.6
2017-Jun-19 04:30N 43°47' W 001°42'0 0.5
2017-Jun-19 04:00N 43°47' W 001°42'  
2017-Jun-16 20:16N 43°19' W 001°56'0 0.0
2017-Jun-16 19:47N 43°19' W 001°56'0 0.0
2017-Jun-16 19:19N 43°19' W 001°56'0 0.0
2017-Jun-14 17:39N 43°19' W 001°55'1 6.5
2017-Jun-14 17:30N 43°20' W 001°56'39 1.9
2017-Jun-13 20:24N 43°58' W 001°39'1 0.9
2017-Jun-13 19:15N 43°58' W 001°39'42 1.8
2017-Jun-12 19:49N 43°25' W 002°15'0 0.1
2017-Jun-12 19:22N 43°25' W 002°15'0 0.4
2017-Jun-12 18:59N 43°25' W 002°15'4 1.8
2017-Jun-12 16:32N 43°28' W 002°10'1 3.7
2017-Jun-12 16:22N 43°27' W 002°10'1 3.7
2017-Jun-12 16:00N 43°26' W 002°11'2 3.7
2017-Jun-12 15:30N 43°24' W 002°13'  
Track history (hours):
 
Tides and Currents Weather Stations Pressure Air Temp Water Temp Dewpoint Dewpoint Depression Visibility Wind Speed Wind Dir Waves Ship Positions

Oceanographic research ship Emma Bardán (Spain)

Ship's website: http://www.mapa.es/es/pesca/pags/emma_web/index.htm

Last reported at 2017-Jun-22 04:25 UTC. Time now 2017-Jun-27 00:20 UTC.
Position N 43°42' W 006°06'.

Length 29 m; draft 3.6 m.

Type: . MMSI: 224756000.

Date/timePositionNaut miles runAvg speedWind from/ knotsBaromVisibWave heightAir tempDewpointWater temp
2017-Jun-22 04:25N 43°42' W 006°06'410.6
2017-Jun-22 04:00N 43°42' W 005°60'510.4
2017-Jun-22 03:29N 43°41' W 005°53'510.3
2017-Jun-22 03:00N 43°41' W 005°46'510.1
2017-Jun-22 02:30N 43°41' W 005°39'510.7
2017-Jun-22 02:00N 43°40' W 005°31'510.5
2017-Jun-22 01:30N 43°40' W 005°24'510.5
2017-Jun-22 00:59N 43°39' W 005°17'147 6.6
2017-Jun-21 02:51N 43°19' W 001°56'0 0.0
2017-Jun-21 02:29N 43°19' W 001°56'0 0.0
2017-Jun-20 20:37N 43°19' W 001°56'29 0.8
2017-Jun-19 08:36N 43°46' W 001°41'0 2.2
2017-Jun-19 08:30N 43°47' W 001°41'1 2.8
2017-Jun-19 08:00N 43°48' W 001°40'1 2.9
2017-Jun-19 07:30N 43°49' W 001°40'1 2.0
2017-Jun-19 07:00N 43°50' W 001°41'1 2.4
2017-Jun-19 06:30N 43°48' W 001°41'1 2.0
2017-Jun-19 06:00N 43°47' W 001°41'1 1.8
2017-Jun-19 05:30N 43°48' W 001°42'0 0.3
2017-Jun-19 05:00N 43°48' W 001°42'0 0.6
2017-Jun-19 04:30N 43°47' W 001°42'0 0.5
2017-Jun-19 04:00N 43°47' W 001°42'  
2017-Jun-16 20:16N 43°19' W 001°56'0 0.0
2017-Jun-16 19:47N 43°19' W 001°56'0 0.0
2017-Jun-16 19:19N 43°19' W 001°56'0 0.0
2017-Jun-14 17:39N 43°19' W 001°55'1 6.5
2017-Jun-14 17:30N 43°20' W 001°56'39 1.9
2017-Jun-13 20:24N 43°58' W 001°39'1 0.9
2017-Jun-13 19:15N 43°58' W 001°39'42 1.8
2017-Jun-12 19:49N 43°25' W 002°15'0 0.1
2017-Jun-12 19:22N 43°25' W 002°15'0 0.4
2017-Jun-12 18:59N 43°25' W 002°15'4 1.8
2017-Jun-12 16:32N 43°28' W 002°10'1 3.7
2017-Jun-12 16:22N 43°27' W 002°10'1 3.7
2017-Jun-12 16:00N 43°26' W 002°11'2 3.7
2017-Jun-12 15:30N 43°24' W 002°13'  

Dump ship's entire track history